createdAt,value
2023-03-24T00:04:18.535Z,14.30
2023-03-24T00:14:26.006Z,14.80
2023-03-24T00:24:32.889Z,13.60
2023-03-24T00:34:39.818Z,14.90
2023-03-24T00:44:46.402Z,13.40
2023-03-24T00:54:59.524Z,16.10
2023-03-24T01:05:06.697Z,17.20
2023-03-24T01:15:20.157Z,14.10
2023-03-24T01:25:27.269Z,16.30
2023-03-24T01:35:34.289Z,14.80
2023-03-24T01:45:41.038Z,14.10
2023-03-24T01:55:49.193Z,14.90
2023-03-24T02:05:58.994Z,16.50
2023-03-24T02:16:24.194Z,16.70
2023-03-24T02:26:41.043Z,20.30
2023-03-24T02:37:12.509Z,22.30
2023-03-24T02:47:45.586Z,22.80
2023-03-24T02:57:57.941Z,22.90
2023-03-24T03:08:07.621Z,22.10
2023-03-24T03:18:40.789Z,22.40
2023-03-24T03:28:59.105Z,24.10
2023-03-24T03:39:25.686Z,20.20
2023-03-24T03:49:32.631Z,19.30
2023-03-24T03:59:40.175Z,19.30
2023-03-24T04:10:21.002Z,20.60
2023-03-24T04:20:34.112Z,19.90
2023-03-24T04:30:45.191Z,18.70
2023-03-24T04:40:53.567Z,19.80
2023-03-24T04:51:02.457Z,20.50
2023-03-24T05:01:10.454Z,22.20
2023-03-24T05:11:17.029Z,21.80
2023-03-24T05:21:23.578Z,24.80
2023-03-24T05:31:30.099Z,32.30
2023-03-24T05:41:36.866Z,27.00
2023-03-24T05:51:43.389Z,26.30
2023-03-24T06:01:49.910Z,26.50
2023-03-24T06:11:57.532Z,26.80
2023-03-24T06:22:04.660Z,27.40
2023-03-24T06:32:12.203Z,25.50
2023-03-24T06:42:19.921Z,26.80
2023-03-24T06:52:26.164Z,26.75
2023-03-24T07:02:36.881Z,26.80
2023-03-24T07:12:43.628Z,27.30
2023-03-24T07:22:50.615Z,25.10
2023-03-24T07:33:03.347Z,26.90
2023-03-24T07:43:10.148Z,25.30
2023-03-24T07:53:21.661Z,25.50
2023-03-24T08:03:29.820Z,26.60
2023-03-24T08:13:36.388Z,28.40
2023-03-24T08:23:42.951Z,22.70
2023-03-24T08:33:49.504Z,22.40
2023-03-24T08:43:56.455Z,21.30
2023-03-24T08:54:05.061Z,21.10
2023-03-24T09:04:13.298Z,18.70
2023-03-24T09:14:19.967Z,16.50
2023-03-24T09:24:26.953Z,15.40
2023-03-24T09:34:35.497Z,16.00
2023-03-24T09:44:44.864Z,15.40
2023-03-24T09:55:05.385Z,16.50
2023-03-24T10:05:22.496Z,18.10
2023-03-24T10:16:13.655Z,16.90
2023-03-24T10:26:35.417Z,18.30
2023-03-24T10:36:42.772Z,16.40
2023-03-24T10:46:53.029Z,17.10
2023-03-24T10:56:59.754Z,14.70
2023-03-24T11:07:15.745Z,18.30
2023-03-24T11:17:23.587Z,16.10
2023-03-24T11:27:30.241Z,20.60
2023-03-24T11:37:37.999Z,16.60
2023-03-24T11:47:44.643Z,19.30
2023-03-24T11:58:00.760Z,18.30
2023-03-24T12:08:19.478Z,18.20
2023-03-24T12:18:40.080Z,19.90
2023-03-24T12:28:56.621Z,17.00
2023-03-24T12:39:22.147Z,17.80
2023-03-24T12:49:31.541Z,18.90
2023-03-24T12:59:54.686Z,17.00
2023-03-24T13:10:09.512Z,20.10
2023-03-24T13:20:26.705Z,18.40
2023-03-24T13:30:41.845Z,18.10
2023-03-24T13:40:52.542Z,18.00
2023-03-24T13:51:05.993Z,23.00
2023-03-24T14:01:12.503Z,20.30
2023-03-24T14:11:39.663Z,20.90
2023-03-24T14:21:46.703Z,20.70
2023-03-24T14:32:16.991Z,20.50
2023-03-24T14:42:35.494Z,16.40
2023-03-24T14:52:45.455Z,19.80
2023-03-24T15:02:56.414Z,16.80
2023-03-24T15:13:03.166Z,17.60
2023-03-24T15:23:10.086Z,18.20
2023-03-24T15:33:16.751Z,20.90
2023-03-24T15:43:24.314Z,20.30
2023-03-24T15:53:45.509Z,21.00
2023-03-24T16:03:52.293Z,22.40
2023-03-24T16:14:00.812Z,22.40
2023-03-24T16:24:08.009Z,19.20
2023-03-24T16:34:14.514Z,20.10
2023-03-24T16:44:19.885Z,18.50
2023-03-24T16:54:26.634Z,19.90
2023-03-24T17:04:35.493Z,22.00
2023-03-24T17:14:43.855Z,26.10
2023-03-24T17:24:51.376Z,22.80
2023-03-24T17:34:58.291Z,24.80
2023-03-24T17:45:06.160Z,22.70
2023-03-24T17:55:13.863Z,27.90
2023-03-24T18:05:27.311Z,26.90
2023-03-24T18:15:34.493Z,31.70
2023-03-24T18:25:40.996Z,23.60
2023-03-24T18:35:54.821Z,24.50
2023-03-24T18:46:01.753Z,25.60
2023-03-24T18:56:09.105Z,24.90
2023-03-24T19:06:16.766Z,23.70
2023-03-24T19:16:23.428Z,20.90
2023-03-24T19:26:30.546Z,19.30
2023-03-24T19:36:37.110Z,20.50
2023-03-24T19:46:43.887Z,22.10
2023-03-24T19:56:50.411Z,21.60
2023-03-24T20:06:57.021Z,22.10
2023-03-24T20:17:03.985Z,22.90
2023-03-24T20:27:10.642Z,20.60
2023-03-24T20:37:17.155Z,19.00
2023-03-24T20:47:24.109Z,22.90
2023-03-24T20:57:32.666Z,21.10
2023-03-24T21:07:39.612Z,19.80
2023-03-24T21:17:47.906Z,20.70
2023-03-24T21:27:55.372Z,21.70
2023-03-24T21:38:02.591Z,21.20
2023-03-24T21:48:09.482Z,19.50
2023-03-24T21:58:16.028Z,23.50
2023-03-24T22:08:27.905Z,22.30
2023-03-24T22:18:35.389Z,17.00
2023-03-24T22:28:42.382Z,18.10
2023-03-24T22:38:49.134Z,14.80
2023-03-24T22:48:55.755Z,17.60
2023-03-24T22:59:02.495Z,15.80
2023-03-24T23:09:09.029Z,15.90
2023-03-24T23:19:15.552Z,10.90
2023-03-24T23:29:22.250Z,10.70
2023-03-24T23:39:29.242Z,12.10
2023-03-24T23:49:35.842Z,12.10
2023-03-24T23:59:42.355Z,13.80
